Time;durP1;ratioP1;P1;durP2;ratioP2;P2;SDS_P1;SDS_P2;PMS_P1;PMS_P2;Temp;Humidity;BMP_temperature;BMP_pressure;BME280_temperature;BME280_humidity;BME280_pressure;Samples;Min_cycle;Max_cycle;Signal;HPM_P1;HPM_P2
2021/04/04 00:00:51;;;;;;;45.13;27.91;;;;;;;4.68;55.59;98897.73;355745;109;2870972;-72
2021/04/04 00:01:56;;;;;;;62.06;37.37;;;;;;;4.65;55.54;98891.94;350423;109;1961972;-73
2021/04/04 00:03:02;;;;;;;57.57;36.38;;;;;;;4.64;55.62;98896.47;364188;109;1962955;-72
2021/04/04 00:04:08;;;;;;;81.92;46.96;;;;;;;4.61;55.84;98903.02;363499;109;1961998;-72
2021/04/04 00:05:14;;;;;;;49.79;30.55;;;;;;;4.58;55.99;98903.39;363345;110;1962997;-71
2021/04/04 00:06:21;;;;;;;55.68;32.73;;;;;;;4.55;55.92;98908.27;364275;109;1961989;-71
2021/04/04 00:07:26;;;;;;;49.29;29.51;;;;;;;4.52;56.06;98913.99;362752;109;1962007;-72
2021/04/04 00:08:31;;;;;;;92.09;57.97;;;;;;;4.50;56.04;98914.20;356830;112;1962039;-72
2021/04/04 00:09:37;;;;;;;96.66;60.58;;;;;;;4.48;55.85;98913.55;356244;111;1962029;-71
2021/04/04 00:10:43;;;;;;;96.48;60.26;;;;;;;4.45;55.72;98913.09;304252;114;2223071;-72
2021/04/04 00:11:50;;;;;;;74.66;46.01;;;;;;;4.41;55.91;98916.11;351866;112;1963452;-71
2021/04/04 00:12:55;;;;;;;75.77;45.85;;;;;;;4.39;55.97;98910.14;349704;113;1965058;-72
2021/04/04 00:14:01;;;;;;;65.14;42.01;;;;;;;4.37;56.29;98911.34;348604;114;1964048;-72
2021/04/04 00:15:10;;;;;;;51.42;35.19;;;;;;;4.37;56.52;98917.52;323512;112;2216879;-71
2021/04/04 00:16:16;;;;;;;97.93;58.29;;;;;;;4.37;56.47;98914.84;310894;112;2823072;-71
2021/04/04 00:17:22;;;;;;;60.90;37.43;;;;;;;4.39;56.36;98909.29;332525;112;1961959;-72
2021/04/04 00:18:27;;;;;;;92.28;54.78;;;;;;;4.42;56.23;98919.64;355592;112;1961988;-72
2021/04/04 00:19:32;;;;;;;88.52;52.91;;;;;;;4.45;56.15;98913.92;354911;112;1961976;-72
2021/04/04 00:20:39;;;;;;;98.72;58.95;;;;;;;4.50;56.11;98924.89;355915;112;1962003;-71
2021/04/04 00:21:45;;;;;;;86.21;53.79;;;;;;;4.52;56.07;98922.02;324594;112;2570022;-70
2021/04/04 00:22:50;;;;;;;78.21;50.35;;;;;;;4.55;56.09;98921.64;335297;112;1966951;-72
2021/04/04 00:23:55;;;;;;;88.88;54.51;;;;;;;4.58;55.94;98923.97;355271;112;1963009;-72
2021/04/04 00:25:00;;;;;;;89.39;52.93;;;;;;;4.58;55.98;98924.80;353842;111;1964120;-72
2021/04/04 00:26:06;;;;;;;86.31;51.99;;;;;;;4.60;55.99;98925.45;360534;110;1962895;-71
2021/04/04 00:27:12;;;;;;;87.48;53.91;;;;;;;4.63;56.03;98924.22;360462;110;1961974;-72
2021/04/04 00:28:18;;;;;;;95.03;57.83;;;;;;;4.66;55.85;98929.22;320592;110;2740948;-72
2021/04/04 00:29:23;;;;;;;92.49;55.02;;;;;;;4.67;55.38;98925.52;360853;110;1963149;-72
2021/04/04 00:30:29;;;;;;;87.37;56.54;;;;;;;4.66;55.22;98931.89;359772;110;1963993;-73
2021/04/04 00:31:35;;;;;;;83.49;49.97;;;;;;;4.63;55.21;98932.23;360218;110;1962022;-71
2021/04/04 00:32:42;;;;;;;72.42;42.40;;;;;;;4.58;55.45;98940.02;310237;112;2828974;-71
2021/04/04 00:33:47;;;;;;;66.55;38.88;;;;;;;4.56;55.47;98942.05;346736;112;1966974;-72
2021/04/04 00:34:53;;;;;;;51.74;28.37;;;;;;;4.56;55.37;98940.19;359270;110;1964053;-72
2021/04/04 00:35:59;;;;;;;44.57;26.20;;;;;;;4.57;55.15;98946.36;358109;110;1963037;-71
2021/04/04 00:37:05;;;;;;;45.77;26.89;;;;;;;4.51;55.30;98950.61;318846;110;2764940;-72
2021/04/04 00:38:11;;;;;;;31.61;18.72;;;;;;;4.45;55.55;98947.86;332419;113;1961957;-72
2021/04/04 00:39:17;;;;;;;31.04;18.24;;;;;;;4.31;56.39;98950.34;353702;113;1961946;-72
2021/04/04 00:40:29;;;;;;;27.52;16.10;;;;;;;4.26;57.09;98943.86;360874;110;1962013;-72
2021/04/04 00:41:35;;;;;;;27.39;16.79;;;;;;;4.22;57.42;98947.92;350704;110;1961914;-72
2021/04/04 00:42:40;;;;;;;31.00;17.08;;;;;;;4.18;57.35;98945.62;360633;110;1961929;-72
2021/04/04 00:43:47;;;;;;;31.54;18.06;;;;;;;4.17;57.93;98951.14;360426;110;1961991;-72
2021/04/04 00:44:52;;;;;;;29.73;17.88;;;;;;;4.14;58.20;98948.84;338195;110;2407075;-71
2021/04/04 00:45:58;;;;;;;30.29;16.66;;;;;;;4.12;58.24;98940.98;344821;110;1962957;-73
2021/04/04 00:47:03;;;;;;;30.07;18.71;;;;;;;4.11;58.51;98947.36;361399;110;1961958;-72
2021/04/04 00:48:09;;;;;;;31.34;17.86;;;;;;;4.12;58.27;98949.00;360783;111;1963976;-71
2021/04/04 00:49:15;;;;;;;26.49;15.78;;;;;;;4.12;58.94;98946.33;360401;110;1961965;-73
2021/04/04 00:50:24;;;;;;;32.74;18.79;;;;;;;4.13;59.16;98939.99;339150;110;2230029;-73
2021/04/04 00:51:32;;;;;;;30.51;17.59;;;;;;;4.15;58.72;98945.99;352103;113;1962011;-71
2021/04/04 00:52:38;;;;;;;28.86;16.97;;;;;;;4.14;59.87;98938.14;347363;115;1961963;-71
2021/04/04 00:53:44;;;;;;;28.24;16.81;;;;;;;4.15;60.26;98940.65;360862;110;1962068;-72
2021/04/04 00:54:49;;;;;;;29.18;17.32;;;;;;;4.17;59.72;98933.25;317505;111;2116978;-72
2021/04/04 00:55:55;;;;;;;28.03;17.06;;;;;;;4.21;60.00;98930.20;345650;110;1966035;-71
2021/04/04 00:57:01;;;;;;;25.51;14.33;;;;;;;4.24;60.29;98935.22;361166;110;1961966;-72
2021/04/04 00:58:06;;;;;;;32.12;17.17;;;;;;;4.26;60.53;98928.67;361022;110;1962106;-71
2021/04/04 00:59:14;;;;;;;28.21;16.48;;;;;;;4.31;60.25;98920.94;360415;110;1963047;-71
2021/04/04 01:00:26;;;;;;;28.47;16.87;;;;;;;4.36;59.61;98929.20;329642;110;1962002;-72
2021/04/04 01:01:33;;;;;;;28.33;16.68;;;;;;;4.40;59.79;98929.69;360777;110;1968984;-72
2021/04/04 01:02:40;;;;;;;29.84;16.24;;;;;;;4.43;60.24;98925.81;360280;110;1961968;-71
2021/04/04 01:03:46;;;;;;;27.42;16.12;;;;;;;4.45;60.12;98929.97;311566;110;2885992;-71
2021/04/04 01:04:53;;;;;;;28.75;15.77;;;;;;;4.47;60.20;98929.77;327785;110;1961902;-71
2021/04/04 01:06:03;;;;;;;28.98;17.52;;;;;;;4.49;60.19;98925.89;360116;111;1964058;-71
2021/04/04 01:07:07;;;;;;;31.74;16.47;;;;;;;4.51;60.00;98933.74;361616;110;1962873;-72
2021/04/04 01:08:12;;;;;;;30.04;16.89;;;;;;;4.53;60.29;98934.39;362438;110;1960739;-71
2021/04/04 01:09:20;;;;;;;26.78;16.22;;;;;;;4.53;60.22;98937.89;355547;112;1961975;-72
2021/04/04 01:10:30;;;;;;;29.79;15.17;;;;;;;4.55;60.38;98937.69;354182;113;1961038;-72
2021/04/04 01:11:42;;;;;;;26.68;14.87;;;;;;;4.56;60.80;98931.34;360742;110;1962008;-71
2021/04/04 01:13:16;;;;;;;26.97;15.50;;;;;;;4.57;60.92;98928.47;360329;110;1961991;-71
2021/04/04 01:14:29;;;;;;;26.27;14.72;;;;;;;4.58;61.13;98932.81;360794;110;1962034;-71
2021/04/04 01:15:40;;;;;;;27.02;14.14;;;;;;;4.58;61.32;98938.17;361610;110;1960805;-71
2021/04/04 01:16:49;;;;;;;24.59;14.78;;;;;;;4.56;61.53;98937.52;362541;110;1960602;-71
2021/04/04 01:17:59;;;;;;;23.64;15.14;;;;;;;4.56;61.53;98934.02;361543;110;1960849;-71
2021/04/04 01:19:27;;;;;;;23.99;15.16;;;;;;;4.56;61.52;98936.69;361831;110;1960807;-71
2021/04/04 01:20:59;;;;;;;25.13;14.18;;;;;;;4.55;61.73;98932.34;352700;113;1960778;-72
2021/04/04 01:22:35;;;;;;;26.16;14.28;;;;;;;4.54;61.85;98942.21;361993;110;1960742;-71
2021/04/04 01:24:18;;;;;;;23.53;13.74;;;;;;;4.56;61.96;98937.52;309256;110;2221359;-71
2021/04/04 01:25:45;;;;;;;28.06;14.71;;;;;;;4.59;61.72;98942.48;360612;110;1961893;-71
2021/04/04 01:26:57;;;;;;;26.72;14.13;;;;;;;4.63;61.62;98943.80;358009;110;1962007;-71
2021/04/04 01:28:07;;;;;;;30.44;16.36;;;;;;;4.65;61.56;98940.09;360828;110;1963098;-72
2021/04/04 01:29:15;;;;;;;27.08;14.74;;;;;;;4.62;61.65;98944.79;315208;110;2864997;-71
2021/04/04 01:30:24;;;;;;;26.53;14.85;;;;;;;4.60;61.63;98938.82;360857;110;1962975;-72
2021/04/04 01:31:30;;;;;;;26.63;13.80;;;;;;;4.59;61.95;98936.31;361635;110;1963961;-72
2021/04/04 01:32:37;;;;;;;23.31;14.12;;;;;;;4.58;62.18;98932.81;361152;110;1962049;-71
2021/04/04 01:33:45;;;;;;;26.60;15.04;;;;;;;4.57;62.07;98936.48;330412;110;1965055;-71
2021/04/04 01:34:51;;;;;;;26.73;15.22;;;;;;;4.56;61.93;98937.52;359850;110;1961950;-71
2021/04/04 01:35:58;;;;;;;24.23;14.05;;;;;;;4.54;61.93;98934.19;338360;110;2404991;-71
2021/04/04 01:37:06;;;;;;;25.93;12.94;;;;;;;4.55;61.93;98935.02;362518;110;1962023;-71
2021/04/04 01:38:15;;;;;;;22.81;13.27;;;;;;;4.55;61.98;98940.36;358998;110;1961963;-72
2021/04/04 01:39:23;;;;;;;22.74;13.44;;;;;;;4.56;61.93;98942.05;315814;112;2090807;-72
2021/04/04 01:40:33;;;;;;;23.37;13.62;;;;;;;4.54;61.95;98939.54;313705;112;2792095;-72
2021/04/04 01:41:43;;;;;;;21.59;13.16;;;;;;;4.55;62.06;98935.87;362146;110;1960949;-72
2021/04/04 01:42:51;;;;;;;21.57;12.82;;;;;;;4.56;61.69;98942.05;318883;110;2774879;-71
2021/04/04 01:44:01;;;;;;;20.94;12.24;;;;;;;4.57;61.80;98941.84;362038;110;1962084;-71
2021/04/04 01:45:08;;;;;;;20.62;12.23;;;;;;;4.56;61.67;98950.89;360998;110;1964022;-71
2021/04/04 01:46:15;;;;;;;23.32;13.47;;;;;;;4.45;61.79;98946.01;360501;110;1961938;-71
2021/04/04 01:47:22;;;;;;;23.88;12.54;;;;;;;4.39;61.71;98949.39;360797;110;1961900;-71
2021/04/04 01:48:29;;;;;;;21.63;12.53;;;;;;;4.31;61.51;98946.81;321242;110;2221890;-71
2021/04/04 01:49:42;;;;;;;24.04;12.92;;;;;;;4.24;61.28;98953.92;362568;110;1961862;-71
2021/04/04 01:50:49;;;;;;;20.94;13.01;;;;;;;4.17;61.36;98959.16;360298;110;1962007;-71
2021/04/04 01:51:56;;;;;;;21.75;11.87;;;;;;;4.08;61.32;98955.74;360773;110;1965014;-72
2021/04/04 01:53:02;;;;;;;22.96;11.84;;;;;;;4.00;61.50;98966.52;335385;110;1964000;-72
2021/04/04 01:54:09;;;;;;;25.14;11.99;;;;;;;3.95;61.88;98958.20;361813;110;1962023;-72
2021/04/04 01:55:14;;;;;;;19.54;11.54;;;;;;;3.92;61.76;98963.91;362250;110;1961970;-73
2021/04/04 01:56:21;;;;;;;22.49;12.11;;;;;;;3.88;62.03;98963.42;312545;112;2111874;-70
2021/04/04 01:57:28;;;;;;;25.91;13.22;;;;;;;3.85;61.88;98961.12;363231;110;1961955;-71
2021/04/04 01:58:37;;;;;;;23.56;12.12;;;;;;;3.81;62.28;98958.98;324105;110;2672990;-72
2021/04/04 01:59:45;;;;;;;20.44;10.82;;;;;;;3.79;62.16;98959.17;338337;110;1961889;-72
2021/04/04 02:00:51;;;;;;;20.52;11.54;;;;;;;3.77;62.28;98960.36;361553;110;1963963;-82
2021/04/04 02:01:57;;;;;;;20.42;10.73;;;;;;;3.77;62.41;98953.17;361752;110;1961945;-71
2021/04/04 02:03:04;;;;;;;22.92;10.66;;;;;;;3.80;62.42;98960.00;329419;110;2579994;-71
2021/04/04 02:04:09;;;;;;;22.51;11.87;;;;;;;3.82;62.49;98961.48;361002;110;1963019;-71
2021/04/04 02:05:17;;;;;;;26.71;13.31;;;;;;;3.84;62.44;98947.95;353011;113;1961973;-71
2021/04/04 02:06:38;;;;;;;21.03;10.87;;;;;;;3.89;62.53;98942.88;361826;110;1962120;-72
2021/04/04 02:07:46;;;;;;;23.69;11.11;;;;;;;3.95;62.46;98945.67;354952;111;1962938;-71
2021/04/04 02:08:53;;;;;;;20.39;10.94;;;;;;;4.03;62.43;98951.95;350916;111;1961976;-71
2021/04/04 02:09:59;;;;;;;20.14;10.68;;;;;;;4.09;62.31;98948.55;350246;113;1961952;-72
2021/04/04 02:11:05;;;;;;;20.77;11.83;;;;;;;4.14;62.13;98946.98;311174;119;2514050;-71
2021/04/04 02:12:12;;;;;;;19.70;11.06;;;;;;;4.18;62.22;98945.62;337283;118;1961968;-71
2021/04/04 02:13:19;;;;;;;19.63;11.19;;;;;;;4.23;62.35;98944.23;337933;119;1961909;-71
2021/04/04 02:14:24;;;;;;;20.91;11.17;;;;;;;4.28;62.03;98947.19;308613;118;1962956;-71
2021/04/04 02:15:31;;;;;;;19.83;10.18;;;;;;;4.30;61.92;98937.97;343448;117;1961956;-71
2021/04/04 02:16:47;;;;;;;21.64;11.24;;;;;;;4.33;61.89;98942.95;344510;114;1962031;-72
2021/04/04 02:17:54;;;;;;;21.50;11.12;;;;;;;4.35;61.90;98934.75;315219;116;2614000;-72
2021/04/04 02:18:59;;;;;;;20.37;10.84;;;;;;;4.38;62.01;98929.86;347005;114;1962024;-71
2021/04/04 02:20:09;;;;;;;23.85;11.04;;;;;;;4.39;61.82;98936.03;346348;114;1961975;-71
2021/04/04 02:21:16;;;;;;;19.15;11.18;;;;;;;4.44;61.85;98932.81;347071;114;1961922;-72
2021/04/04 02:22:22;;;;;;;19.10;11.10;;;;;;;4.46;61.86;98936.95;330774;114;1963901;-72
2021/04/04 02:23:28;;;;;;;18.83;9.78;;;;;;;4.48;61.81;98931.44;347154;114;1962010;-72
2021/04/04 02:24:35;;;;;;;20.46;11.28;;;;;;;4.47;62.04;98927.09;348184;116;1963978;-71
2021/04/04 02:25:41;;;;;;;19.80;10.72;;;;;;;4.48;61.99;98929.59;320137;114;1961977;-71
2021/04/04 02:26:49;;;;;;;17.84;9.91;;;;;;;4.50;61.97;98926.71;347386;114;1963970;-71
2021/04/04 02:27:54;;;;;;;19.71;9.63;;;;;;;4.50;62.03;98921.36;307269;114;2239014;-72
2021/04/04 02:29:05;;;;;;;17.90;9.99;;;;;;;4.50;62.06;98924.89;332859;116;1961981;-72
2021/04/04 02:30:15;;;;;;;16.12;10.44;;;;;;;4.51;62.08;98923.87;347630;114;1961983;-71
2021/04/04 02:31:21;;;;;;;19.09;9.82;;;;;;;4.52;62.12;98925.52;347825;114;1964007;-73
2021/04/04 02:32:28;;;;;;;18.34;9.78;;;;;;;4.52;62.10;98927.36;347454;116;1964010;-71
2021/04/04 02:33:42;;;;;;;18.29;9.81;;;;;;;4.52;62.25;98919.34;323778;116;1965041;-72
2021/04/04 02:34:51;;;;;;;18.07;10.34;;;;;;;4.52;62.25;98922.02;337172;119;1961899;-71
2021/04/04 02:36:06;;;;;;;18.87;10.38;;;;;;;4.52;62.44;98922.84;310187;116;2219942;-70
2021/04/04 02:37:15;;;;;;;18.70;9.72;;;;;;;4.52;62.54;98922.02;321769;117;1961980;-72
2021/04/04 02:38:30;;;;;;;15.91;9.42;;;;;;;4.53;62.54;98918.34;308442;119;2523983;-71
2021/04/04 02:39:50;;;;;;;15.69;8.87;;;;;;;4.52;62.64;98922.02;346528;114;1964932;-72
2021/04/04 02:40:58;;;;;;;14.08;7.47;;;;;;;4.54;62.81;98914.64;309015;116;2093785;-72
2021/04/04 02:42:05;;;;;;;14.91;8.21;;;;;;;4.54;62.84;98918.14;347083;116;1961946;-72
2021/04/04 02:43:16;;;;;;;16.42;8.38;;;;;;;4.54;62.85;98915.47;333081;114;1962065;-72
2021/04/04 02:44:24;;;;;;;15.32;7.41;;;;;;;4.56;62.93;98923.32;346888;114;1961929;-73
2021/04/04 02:45:30;;;;;;;16.57;8.17;;;;;;;4.57;62.85;98916.94;334350;116;1962041;-71
2021/04/04 02:46:41;;;;;;;14.74;8.47;;;;;;;4.60;62.78;98916.56;304423;114;2815917;-71
2021/04/04 02:48:00;;;;;;;13.87;8.53;;;;;;;4.62;62.83;98915.37;346617;115;1962874;-71
2021/04/04 02:49:09;;;;;;;16.38;8.27;;;;;;;4.64;62.66;98915.19;347214;116;1962014;-71
2021/04/04 02:50:15;;;;;;;15.30;8.51;;;;;;;4.66;62.82;98920.34;347214;114;1961986;-72
2021/04/04 02:51:25;;;;;;;15.93;9.34;;;;;;;4.66;62.56;98920.34;331416;114;2883953;-71
2021/04/04 02:52:34;;;;;;;17.06;8.07;;;;;;;4.66;62.46;98921.19;307929;116;2741947;-72
2021/04/04 02:53:43;;;;;;;15.78;8.43;;;;;;;4.67;62.48;98922.84;347019;114;1961956;-72
2021/04/04 02:54:53;;;;;;;14.88;8.25;;;;;;;4.68;62.52;98923.66;320142;114;2239991;-72
2021/04/04 02:56:01;;;;;;;19.34;9.32;;;;;;;4.67;62.42;98927.37;347468;114;1962000;-72
2021/04/04 02:57:08;;;;;;;15.96;8.45;;;;;;;4.67;62.48;98930.04;347238;114;1961991;-71
2021/04/04 02:58:13;;;;;;;16.24;8.51;;;;;;;4.66;62.55;98923.02;346350;114;1964978;-71
2021/04/04 02:59:28;;;;;;;17.49;8.58;;;;;;;4.65;62.90;98926.72;318767;114;2523071;-72
2021/04/04 03:00:39;;;;;;;16.94;8.54;;;;;;;4.62;62.73;98925.24;344306;114;1961955;-72
2021/04/04 03:01:48;;;;;;;15.07;8.95;;;;;;;4.61;62.70;98937.80;348996;114;1965962;-73
2021/04/04 03:02:55;;;;;;;13.76;8.01;;;;;;;4.59;62.88;98929.12;303690;114;2157263;-72
2021/04/04 03:04:04;;;;;;;16.94;9.41;;;;;;;4.57;63.09;98930.31;347584;114;1962031;-72
2021/04/04 03:05:10;;;;;;;14.56;9.18;;;;;;;4.55;62.95;98929.66;346898;114;1962022;-72
2021/04/04 03:06:19;;;;;;;16.53;9.33;;;;;;;4.53;63.07;98929.05;311381;114;2685930;-71
2021/04/04 03:07:27;;;;;;;15.92;9.17;;;;;;;4.49;63.04;98922.39;348902;113;1961951;-71
2021/04/04 03:08:35;;;;;;;19.48;8.90;;;;;;;4.44;63.24;98925.61;356837;111;1964965;-72
2021/04/04 03:09:45;;;;;;;18.39;9.87;;;;;;;4.41;63.35;98928.66;349517;110;1962043;-72
2021/04/04 03:10:52;;;;;;;17.57;9.89;;;;;;;4.40;63.45;98927.02;347302;111;2228006;-71
2021/04/04 03:12:00;;;;;;;17.70;9.77;;;;;;;4.37;63.68;98924.71;361381;111;1962030;-72
2021/04/04 03:13:05;;;;;;;19.69;9.09;;;;;;;4.36;63.77;98939.90;314158;110;2170155;-71
2021/04/04 03:14:11;;;;;;;17.56;9.70;;;;;;;4.36;63.99;98933.73;357418;111;1961841;-72
2021/04/04 03:15:17;;;;;;;17.58;8.90;;;;;;;4.35;64.12;98940.92;357305;111;1964994;-72
2021/04/04 03:16:25;;;;;;;13.99;8.70;;;;;;;4.35;64.24;98940.92;318011;112;2225931;-71
2021/04/04 03:17:31;;;;;;;15.24;7.50;;;;;;;4.35;64.24;98946.27;357531;111;1963955;-72
2021/04/04 03:18:40;;;;;;;16.54;8.59;;;;;;;4.36;64.18;98942.57;357459;112;1962705;-72
2021/04/04 03:19:46;;;;;;;14.38;8.25;;;;;;;4.37;64.25;98941.58;361497;110;1961984;-72
2021/04/04 03:20:54;;;;;;;14.97;8.20;;;;;;;4.39;64.06;98949.39;319182;111;2706984;-71
2021/04/04 03:22:01;;;;;;;13.16;8.44;;;;;;;4.42;63.98;98951.73;357922;111;1962075;-71
2021/04/04 03:23:08;;;;;;;16.74;8.94;;;;;;;4.46;63.81;98954.86;325972;111;1961954;-73
2021/04/04 03:24:15;;;;;;;15.57;8.74;;;;;;;4.50;63.62;98951.64;358012;111;1961968;-72
2021/04/04 03:25:22;;;;;;;16.30;9.05;;;;;;;4.54;63.55;98965.46;318840;111;2713033;-72
2021/04/04 03:26:29;;;;;;;13.32;8.04;;;;;;;4.57;63.37;98955.21;346215;115;1961992;-70
2021/04/04 03:27:37;;;;;;;14.26;8.34;;;;;;;4.59;63.24;98953.19;312636;111;2827901;-72
2021/04/04 03:28:42;;;;;;;14.74;8.44;;;;;;;4.63;63.12;98943.80;357690;111;1964018;-72
2021/04/04 03:29:49;;;;;;;16.12;8.73;;;;;;;4.67;62.97;98943.42;357546;111;1961993;-71
2021/04/04 03:30:56;;;;;;;16.97;8.93;;;;;;;4.69;62.95;98949.42;353686;112;1961974;-72
2021/04/04 03:32:02;;;;;;;15.71;8.61;;;;;;;4.71;62.94;98945.55;357573;112;1961914;-71
2021/04/04 03:33:08;;;;;;;17.14;9.72;;;;;;;4.74;62.90;98949.70;361442;110;1963934;-72
2021/04/04 03:34:15;;;;;;;20.06;9.74;;;;;;;4.76;62.95;98937.80;345030;111;1962012;-72
2021/04/04 03:35:21;;;;;;;21.17;10.74;;;;;;;4.78;63.08;98945.61;358032;111;1961942;-71
2021/04/04 03:36:27;;;;;;;18.50;10.73;;;;;;;4.80;63.17;98946.27;358136;111;1961984;-72
2021/04/04 03:37:33;;;;;;;17.45;8.94;;;;;;;4.81;63.40;98948.73;347145;111;1960768;-71
2021/04/04 03:38:39;;;;;;;17.02;8.49;;;;;;;4.82;63.41;98945.06;358382;111;1960888;-71
2021/04/04 03:39:46;;;;;;;15.29;7.84;;;;;;;4.85;63.39;98949.21;358012;111;1963957;-71
2021/04/04 03:40:54;;;;;;;14.20;7.01;;;;;;;4.87;63.81;98944.52;360585;111;1961913;-72
2021/04/04 03:42:02;;;;;;;10.97;6.36;;;;;;;4.89;63.91;98947.80;361158;110;1962024;-72
2021/04/04 03:43:13;;;;;;;11.96;5.84;;;;;;;4.91;64.24;98951.13;361172;111;1961955;-71
2021/04/04 03:44:21;;;;;;;12.46;6.23;;;;;;;4.92;64.59;98941.25;361608;110;1961910;-71
2021/04/04 03:45:27;;;;;;;12.08;5.99;;;;;;;4.92;64.74;98947.45;361145;110;1969970;-72
2021/04/04 03:46:35;;;;;;;13.03;6.19;;;;;;;4.96;64.71;98951.41;343779;110;2298948;-72
2021/04/04 03:47:42;;;;;;;10.43;5.70;;;;;;;4.98;64.96;98948.55;360945;110;1961952;-72
2021/04/04 03:48:49;;;;;;;10.52;5.69;;;;;;;4.99;65.02;98952.88;358068;112;1962885;-72
2021/04/04 03:49:55;;;;;;;11.68;5.77;;;;;;;5.01;65.06;98954.34;360481;110;1961916;-72
2021/04/04 03:51:05;;;;;;;11.72;6.41;;;;;;;5.03;65.38;98960.35;361610;110;1961971;-71
2021/04/04 03:52:13;;;;;;;12.03;5.65;;;;;;;5.03;65.53;98952.32;361827;110;1962331;-72
2021/04/04 03:53:21;;;;;;;11.84;6.80;;;;;;;5.05;65.56;98957.47;360115;111;1963107;-72
2021/04/04 03:54:30;;;;;;;11.02;6.25;;;;;;;5.06;65.57;98967.18;314631;110;2163884;-72
2021/04/04 03:55:36;;;;;;;10.98;6.52;;;;;;;5.07;65.81;98966.15;361572;111;1962953;-72
2021/04/04 03:56:46;;;;;;;12.11;6.66;;;;;;;5.09;65.77;98968.66;361592;111;1962002;-72
2021/04/04 03:57:53;;;;;;;12.94;6.84;;;;;;;5.10;65.81;98965.77;361293;110;1961996;-72
2021/04/04 03:59:03;;;;;;;15.77;7.49;;;;;;;5.08;66.04;98970.50;361064;110;1961957;-71
2021/04/04 04:00:11;;;;;;;13.03;6.56;;;;;;;5.09;65.98;98972.16;356864;111;1964917;-72
2021/04/04 04:01:23;;;;;;;11.93;6.11;;;;;;;5.09;66.02;98965.97;338050;112;2330962;-70
2021/04/04 04:02:30;;;;;;;12.55;6.84;;;;;;;5.11;66.10;98969.27;319986;111;2923996;-73
2021/04/04 04:03:37;;;;;;;12.39;7.02;;;;;;;5.13;66.00;98970.74;362388;110;1962991;-72
2021/04/04 04:04:44;;;;;;;11.99;6.73;;;;;;;5.12;66.13;98973.63;323697;111;2955013;-72
2021/04/04 04:05:50;;;;;;;14.06;6.44;;;;;;;5.13;66.16;98972.59;348832;111;1964843;-72
2021/04/04 04:06:57;;;;;;;11.49;6.20;;;;;;;5.14;66.55;98976.95;357879;112;1962025;-71
2021/04/04 04:08:03;;;;;;;15.82;7.84;;;;;;;5.16;66.19;98985.60;316958;110;2775015;-71
2021/04/04 04:09:12;;;;;;;14.83;6.87;;;;;;;5.16;66.33;98977.57;352109;114;1964380;-72
2021/04/04 04:10:19;;;;;;;15.42;8.13;;;;;;;5.19;66.18;98986.08;351222;114;1962022;-72
2021/04/04 04:11:25;;;;;;;16.37;9.03;;;;;;;5.20;65.77;98981.55;352147;114;1961907;-72
2021/04/04 04:12:33;;;;;;;16.38;9.25;;;;;;;5.17;64.96;98989.95;321610;115;2532960;-71
2021/04/04 04:13:40;;;;;;;14.94;7.87;;;;;;;5.07;65.03;98985.71;350966;115;1962003;-72
2021/04/04 04:14:46;;;;;;;15.42;8.52;;;;;;;5.02;64.93;99001.50;324008;115;2482995;-72
2021/04/04 04:15:52;;;;;;;17.23;9.02;;;;;;;4.98;64.94;98992.20;350431;115;1961890;-72
2021/04/04 04:16:58;;;;;;;13.95;7.36;;;;;;;4.92;64.83;99003.66;351923;114;1964050;-71
2021/04/04 04:18:06;;;;;;;13.26;7.34;;;;;;;4.81;64.80;98999.58;352460;114;1962007;-72
2021/04/04 04:19:12;;;;;;;13.30;7.43;;;;;;;4.73;64.83;98997.00;352789;114;1963909;-72
2021/04/04 04:20:19;;;;;;;13.42;7.22;;;;;;;4.65;65.22;99001.62;352077;114;1961899;-71
2021/04/04 04:21:25;;;;;;;13.51;7.56;;;;;;;4.59;65.23;99012.03;335619;114;1961949;-72
2021/04/04 04:22:30;;;;;;;13.51;7.16;;;;;;;4.49;65.58;99006.12;352434;114;1963018;-72
2021/04/04 04:23:38;;;;;;;13.51;7.19;;;;;;;4.44;65.50;99002.34;352304;114;1961917;-72
2021/04/04 04:24:51;;;;;;;11.07;6.03;;;;;;;4.38;65.40;99003.91;335557;114;1962013;-71
2021/04/04 04:25:58;;;;;;;12.26;6.61;;;;;;;4.34;65.31;99003.45;311860;114;2704971;-71
2021/04/04 04:27:05;;;;;;;13.04;6.53;;;;;;;4.28;65.56;98998.80;351662;114;1965021;-72
2021/04/04 04:28:11;;;;;;;12.77;6.52;;;;;;;4.26;65.55;99002.67;352867;114;1962034;-71
2021/04/04 04:29:18;;;;;;;11.82;6.38;;;;;;;4.26;65.67;99003.53;302305;114;2216582;-72
2021/04/04 04:30:25;;;;;;;12.16;6.00;;;;;;;4.26;65.65;99005.34;347898;115;1961947;-72
2021/04/04 04:31:37;;;;;;;12.18;6.81;;;;;;;4.24;65.80;99010.06;317719;115;1961973;-72
2021/04/04 04:32:43;;;;;;;14.80;6.68;;;;;;;4.20;65.50;99009.58;350702;115;1961896;-72
2021/04/04 04:33:53;;;;;;;11.58;5.88;;;;;;;3.88;65.54;98968.77;318977;115;2595075;-72
2021/04/04 04:35:02;;;;;;;11.66;6.06;;;;;;;4.08;65.66;99014.54;307765;115;2801910;-72
2021/04/04 04:36:09;;;;;;;13.06;6.57;;;;;;;4.04;65.74;99015.90;350692;115;1963992;-72
2021/04/04 04:37:15;;;;;;;14.71;6.64;;;;;;;4.03;65.81;99014.25;349616;115;1961963;-72
2021/04/04 04:38:23;;;;;;;13.15;6.48;;;;;;;4.04;65.69;99015.90;350049;115;1965966;-72
2021/04/04 04:39:29;;;;;;;15.18;7.23;;;;;;;4.05;65.90;99012.23;350270;115;1961981;-73
2021/04/04 04:40:37;;;;;;;13.50;6.69;;;;;;;4.08;65.87;99019.88;351362;114;1962035;-72
2021/04/04 04:41:46;;;;;;;15.01;6.26;;;;;;;4.11;65.87;99013.34;341700;114;1961990;-73
2021/04/04 04:42:54;;;;;;;12.81;6.11;;;;;;;4.14;65.82;99016.48;307841;114;2156604;-72
2021/04/04 04:44:03;;;;;;;12.71;6.64;;;;;;;4.18;65.65;99019.61;352508;114;1962072;-74
2021/04/04 04:45:18;;;;;;;11.75;6.12;;;;;;;4.23;65.45;99019.08;353063;114;1962019;-72
2021/04/04 04:46:26;;;;;;;10.44;5.94;;;;;;;4.23;65.36;99022.58;310486;114;2108672;-73
2021/04/04 04:47:33;;;;;;;12.44;6.09;;;;;;;4.25;65.24;99009.05;352358;114;1961927;-71
2021/04/04 04:48:40;;;;;;;13.59;6.87;;;;;;;4.30;65.12;99014.68;323039;114;2536001;-72
2021/04/04 04:49:46;;;;;;;12.48;5.82;;;;;;;4.31;65.21;99021.67;350077;114;1961997;-73
2021/04/04 04:50:51;;;;;;;9.64;5.80;;;;;;;4.33;65.10;99017.81;352704;114;1961968;-71
2021/04/04 04:51:57;;;;;;;10.13;5.87;;;;;;;4.36;65.01;99020.11;352095;114;1961949;-72
2021/04/04 04:53:04;;;;;;;12.62;6.02;;;;;;;4.38;64.80;99015.42;334099;114;2301869;-72
2021/04/04 04:54:09;;;;;;;12.52;5.93;;;;;;;4.40;64.77;99017.92;352008;114;1962961;-73
2021/04/04 04:55:16;;;;;;;15.43;7.07;;;;;;;4.40;64.73;99024.10;352488;114;1963942;-72
2021/04/04 04:56:24;;;;;;;16.16;6.98;;;;;;;4.42;64.53;99021.26;342130;114;1961919;-72
2021/04/04 04:57:31;;;;;;;17.31;6.84;;;;;;;4.43;64.52;99020.23;352528;114;1962009;-72
2021/04/04 04:58:36;;;;;;;12.54;7.38;;;;;;;4.43;64.45;99022.91;306720;114;2174498;-72
2021/04/04 04:59:44;;;;;;;17.34;7.98;;;;;;;4.42;64.40;99015.91;352190;114;1963976;-72
2021/04/04 05:00:54;;;;;;;14.09;6.57;;;;;;;4.44;64.60;99021.06;359138;110;1960751;-72
2021/04/04 05:02:00;;;;;;;18.48;7.88;;;;;;;4.42;64.60;99021.26;366218;110;1962064;-72
2021/04/04 05:03:06;;;;;;;17.78;7.17;;;;;;;4.49;64.78;99019.49;362346;110;1961976;-72
2021/04/04 05:04:12;;;;;;;12.99;6.51;;;;;;;4.54;64.45;99024.30;365626;110;1961918;-71
2021/04/04 05:05:18;;;;;;;13.61;6.04;;;;;;;4.53;64.36;99026.16;355048;112;1961913;-72
2021/04/04 05:06:27;;;;;;;13.92;5.73;;;;;;;4.58;64.34;99025.61;331944;113;2209702;-72
2021/04/04 05:07:33;;;;;;;12.96;5.99;;;;;;;4.61;64.19;99026.06;355397;112;1961945;-72
2021/04/04 05:08:44;;;;;;;12.06;5.17;;;;;;;4.62;64.15;99026.89;355022;112;1961997;-73
2021/04/04 05:09:50;;;;;;;10.49;5.81;;;;;;;4.62;64.04;99022.36;355110;112;1962079;-72
2021/04/04 05:10:57;;;;;;;10.84;4.85;;;;;;;4.62;63.98;99027.72;355230;112;1961955;-71
2021/04/04 05:12:03;;;;;;;12.86;4.79;;;;;;;4.62;64.08;99026.89;355420;112;1961925;-72